createdAt,value
2018-04-13T00:00:45.445Z,0
2018-04-13T00:01:45.474Z,0
2018-04-13T00:02:44.978Z,0
2018-04-13T00:03:45.508Z,0
2018-04-13T00:04:45.832Z,0
2018-04-13T00:05:45.813Z,0
2018-04-13T00:06:45.325Z,0
2018-04-13T00:07:45.607Z,0
2018-04-13T00:08:45.887Z,0
2018-04-13T00:09:45.147Z,0
2018-04-13T00:10:45.424Z,0
2018-04-13T00:11:45.947Z,0
2018-04-13T00:12:45.978Z,0
2018-04-13T00:13:45.752Z,0
2018-04-13T00:14:45.825Z,0
2018-04-13T00:15:46.059Z,0
2018-04-13T00:16:46.077Z,0
2018-04-13T00:17:45.845Z,0
2018-04-13T00:18:45.880Z,0
2018-04-13T00:19:46.143Z,0
2018-04-13T00:20:45.674Z,0
2018-04-13T00:21:45.431Z,0
2018-04-13T00:22:46.213Z,0
2018-04-13T00:23:46.240Z,0
2018-04-13T00:24:45.752Z,0
2018-04-13T00:25:46.286Z,0
2018-04-13T00:26:46.056Z,0
2018-04-13T00:27:46.330Z,0
2018-04-13T00:28:46.098Z,0
2018-04-13T00:29:46.451Z,0
2018-04-13T00:30:45.892Z,0
2018-04-13T00:31:46.427Z,0
2018-04-13T00:32:46.453Z,0
2018-04-13T00:33:46.472Z,0
2018-04-13T00:34:46.291Z,0
2018-04-13T00:35:46.511Z,0
2018-04-13T00:36:46.539Z,0
2018-04-13T00:37:46.305Z,0
2018-04-13T00:38:46.327Z,0
2018-04-13T00:39:46.612Z,0
2018-04-13T00:40:46.363Z,0
2018-04-13T00:41:46.384Z,0
2018-04-13T00:42:46.661Z,0
2018-04-13T00:43:46.683Z,0
2018-04-13T00:44:46.465Z,0
2018-04-13T00:45:46.479Z,0
2018-04-13T00:46:46.753Z,0
2018-04-13T00:47:46.274Z,0
2018-04-13T00:48:46.809Z,0
2018-04-13T00:49:46.868Z,0
2018-04-13T00:50:46.840Z,0
2018-04-13T00:51:46.886Z,0
2018-04-13T00:52:46.660Z,0
2018-04-13T00:53:46.683Z,0
2018-04-13T00:54:46.708Z,0
2018-04-13T00:55:46.980Z,0
2018-04-13T00:56:46.494Z,0
2018-04-13T00:57:46.769Z,0
2018-04-13T00:58:47.050Z,0
2018-04-13T00:59:47.070Z,0
2018-04-13T01:00:47.093Z,0
2018-04-13T01:01:47.111Z,0
2018-04-13T01:02:47.129Z,0
2018-04-13T01:03:47.170Z,0
2018-04-13T01:04:47.229Z,0
2018-04-13T01:05:47.220Z,0
2018-04-13T01:06:46.721Z,0
2018-04-13T01:07:47.246Z,0
2018-04-13T01:08:47.559Z,0
2018-04-13T01:09:47.050Z,0
2018-04-13T01:10:47.076Z,0
2018-04-13T01:11:47.088Z,0
2018-04-13T01:12:47.365Z,0
2018-04-13T01:13:47.387Z,0
2018-04-13T01:14:47.147Z,0
2018-04-13T01:15:47.193Z,0
2018-04-13T01:16:46.940Z,0
2018-04-13T01:17:47.219Z,0
2018-04-13T01:18:47.248Z,0
2018-04-13T01:19:47.574Z,0
2018-04-13T01:20:47.296Z,0
2018-04-13T01:21:47.316Z,0
2018-04-13T01:22:47.082Z,0
2018-04-13T01:23:47.613Z,0
2018-04-13T01:24:47.416Z,0
2018-04-13T01:25:47.652Z,0
2018-04-13T01:26:47.675Z,0
2018-04-13T01:27:47.694Z,0
2018-04-13T01:28:47.718Z,0
2018-04-13T01:29:47.492Z,0
2018-04-13T01:30:47.512Z,0
2018-04-13T01:31:47.540Z,0
2018-04-13T01:32:47.559Z,0
2018-04-13T01:33:47.843Z,0
2018-04-13T01:34:47.853Z,0
2018-04-13T01:35:47.637Z,0
2018-04-13T01:36:47.953Z,0
2018-04-13T01:37:47.917Z,0
2018-04-13T01:38:47.692Z,0
2018-04-13T01:39:47.718Z,0
2018-04-13T01:40:47.503Z,0
2018-04-13T01:41:48.011Z,0
2018-04-13T01:42:47.550Z,0
2018-04-13T01:43:47.818Z,0
2018-04-13T01:44:48.074Z,0
2018-04-13T01:45:48.106Z,0
2018-04-13T01:46:47.869Z,0
2018-04-13T01:47:48.143Z,0
2018-04-13T01:48:48.163Z,0
2018-04-13T01:49:48.194Z,0
2018-04-13T01:50:48.207Z,0
2018-04-13T01:51:48.031Z,0
2018-04-13T01:52:47.755Z,0
2018-04-13T01:53:48.281Z,0
2018-04-13T01:54:48.308Z,0
2018-04-13T01:55:48.320Z,0
2018-04-13T01:56:48.345Z,0
2018-04-13T01:57:48.378Z,0
2018-04-13T01:58:48.390Z,0
2018-04-13T01:59:48.414Z,0
2018-04-13T02:00:48.501Z,0
2018-04-13T02:01:48.479Z,0
2018-04-13T02:02:48.243Z,0
2018-04-13T02:03:48.513Z,0
2018-04-13T02:04:48.269Z,0
2018-04-13T02:05:48.296Z,0
2018-04-13T02:06:48.114Z,0
2018-04-13T02:07:48.596Z,0
2018-04-13T02:08:48.623Z,0
2018-04-13T02:09:48.666Z,0
2018-04-13T02:10:48.665Z,0
2018-04-13T02:11:48.430Z,0
2018-04-13T02:12:48.463Z,0
2018-04-13T02:13:47.969Z,0
2018-04-13T02:14:48.500Z,0
2018-04-13T02:15:48.777Z,0
2018-04-13T02:16:48.546Z,0
2018-04-13T02:17:48.568Z,0
2018-04-13T02:18:48.870Z,0
2018-04-13T02:19:48.869Z,0
2018-04-13T02:20:48.908Z,0
2018-04-13T02:21:48.705Z,0
2018-04-13T02:22:48.939Z,0
2018-04-13T02:23:48.959Z,0
2018-04-13T02:24:48.725Z,0
2018-04-13T02:25:48.748Z,0
2018-04-13T02:26:48.765Z,0
2018-04-13T02:27:49.047Z,0
2018-04-13T02:28:48.812Z,0
2018-04-13T02:29:48.827Z,0
2018-04-13T02:30:49.107Z,0
2018-04-13T02:31:48.917Z,0
2018-04-13T02:32:49.171Z,0
2018-04-13T02:33:49.165Z,0
2018-04-13T02:34:48.681Z,0
2018-04-13T02:35:49.209Z,0
2018-04-13T02:36:48.993Z,0
2018-04-13T02:37:49.039Z,0
2018-04-13T02:38:49.280Z,0
2018-04-13T02:39:48.788Z,0
2018-04-13T02:40:49.059Z,0
2018-04-13T02:41:48.834Z,0
2018-04-13T02:42:49.380Z,0
2018-04-13T02:43:49.148Z,0
2018-04-13T02:44:49.419Z,0
2018-04-13T02:45:48.938Z,0
2018-04-13T02:46:49.548Z,0
2018-04-13T02:47:49.495Z,0
2018-04-13T02:48:49.261Z,0
2018-04-13T02:49:48.768Z,0
2018-04-13T02:50:49.554Z,0
2018-04-13T02:51:49.570Z,0
2018-04-13T02:52:49.603Z,0
2018-04-13T02:53:49.612Z,0
2018-04-13T02:54:49.638Z,0
2018-04-13T02:55:49.674Z,0
2018-04-13T02:56:49.691Z,0
2018-04-13T02:57:49.684Z,0
2018-04-13T02:58:49.449Z,0
2018-04-13T02:59:49.222Z,0
2018-04-13T03:00:49.777Z,0
2018-04-13T03:01:49.582Z,0
2018-04-13T03:02:49.790Z,0
2018-04-13T03:03:49.556Z,0
2018-04-13T03:04:49.333Z,0
2018-04-13T03:05:49.862Z,0
2018-04-13T03:06:49.877Z,0
2018-04-13T03:07:49.672Z,0
2018-04-13T03:08:49.945Z,0
2018-04-13T03:09:49.963Z,0
2018-04-13T03:10:49.736Z,0
2018-04-13T03:11:50.020Z,0
2018-04-13T03:12:49.518Z,0
2018-04-13T03:13:49.797Z,0
2018-04-13T03:14:49.308Z,0
2018-04-13T03:15:49.839Z,0
2018-04-13T03:16:49.920Z,0
2018-04-13T03:17:49.885Z,0
2018-04-13T03:18:49.934Z,0
2018-04-13T03:19:50.181Z,0
2018-04-13T03:20:49.442Z,0
2018-04-13T03:21:50.224Z,0
2018-04-13T03:22:50.241Z,0
2018-04-13T03:23:50.287Z,0
2018-04-13T03:24:49.784Z,0
2018-04-13T03:25:50.053Z,0
2018-04-13T03:26:50.081Z,0
2018-04-13T03:27:50.097Z,0
2018-04-13T03:28:50.123Z,0
2018-04-13T03:29:50.152Z,0
2018-04-13T03:30:50.421Z,0
2018-04-13T03:31:50.523Z,0
2018-04-13T03:32:50.464Z,0
2018-04-13T03:33:50.240Z,0
2018-04-13T03:34:50.007Z,0
2018-04-13T03:35:50.282Z,0
2018-04-13T03:36:50.298Z,0
2018-04-13T03:37:50.325Z,0
2018-04-13T03:38:50.338Z,0
2018-04-13T03:39:50.621Z,0
2018-04-13T03:40:50.650Z,0
2018-04-13T03:41:50.417Z,0
2018-04-13T03:42:50.178Z,0
2018-04-13T03:43:50.195Z,0
2018-04-13T03:44:50.475Z,0
2018-04-13T03:45:50.502Z,0
2018-04-13T03:46:50.822Z,0
2018-04-13T03:47:50.796Z,0
2018-04-13T03:48:50.812Z,0
2018-04-13T03:49:50.847Z,0
2018-04-13T03:50:50.859Z,4
2018-04-13T03:51:50.623Z,0
2018-04-13T03:52:50.392Z,4
2018-04-13T03:53:50.410Z,4
2018-04-13T03:54:50.948Z,4
2018-04-13T03:55:50.716Z,4
2018-04-13T03:56:51.033Z,4
2018-04-13T03:57:50.496Z,4
2018-04-13T03:58:51.048Z,4
2018-04-13T03:59:50.533Z,4
2018-04-13T04:00:51.068Z,4
2018-04-13T04:01:51.139Z,4
2018-04-13T04:02:50.611Z,4
2018-04-13T04:03:51.141Z,4
2018-04-13T04:04:50.915Z,4
2018-04-13T04:05:51.178Z,4
2018-04-13T04:06:50.948Z,4
2018-04-13T04:07:51.219Z,4
2018-04-13T04:08:51.239Z,8
2018-04-13T04:09:51.009Z,4
2018-04-13T04:10:51.032Z,8
2018-04-13T04:11:51.304Z,8
2018-04-13T04:12:51.077Z,8
2018-04-13T04:13:51.346Z,8
2018-04-13T04:14:51.112Z,12
2018-04-13T04:15:51.138Z,12
2018-04-13T04:16:51.467Z,12
2018-04-13T04:17:51.444Z,12
2018-04-13T04:18:50.945Z,16
2018-04-13T04:19:51.470Z,20
2018-04-13T04:20:51.492Z,24
2018-04-13T04:21:51.270Z,24
2018-04-13T04:22:51.027Z,28
2018-04-13T04:23:51.555Z,32
2018-04-13T04:24:51.079Z,36
2018-04-13T04:25:51.601Z,40
2018-04-13T04:26:51.432Z,48
2018-04-13T04:27:51.415Z,56
2018-04-13T04:28:51.682Z,64
2018-04-13T04:29:51.441Z,68
2018-04-13T04:30:51.719Z,76
2018-04-13T04:31:51.733Z,84
2018-04-13T04:32:51.244Z,96
2018-04-13T04:33:51.777Z,104
2018-04-13T04:34:51.811Z,116
2018-04-13T04:35:51.317Z,132
2018-04-13T04:36:51.592Z,144
2018-04-13T04:37:51.626Z,160
2018-04-13T04:38:51.887Z,180
2018-04-13T04:39:51.402Z,196
2018-04-13T04:40:51.945Z,220
2018-04-13T04:41:52.006Z,236
2018-04-13T04:42:51.466Z,260
2018-04-13T04:43:51.493Z,288
2018-04-13T04:44:52.018Z,312
2018-04-13T04:45:52.058Z,340
2018-04-13T04:46:52.112Z,364
2018-04-13T04:47:52.088Z,392
2018-04-13T04:48:51.851Z,424
2018-04-13T04:49:52.129Z,452
2018-04-13T04:50:52.154Z,488
2018-04-13T04:51:52.169Z,516
2018-04-13T04:52:51.934Z,548
2018-04-13T04:53:51.705Z,580
2018-04-13T04:54:52.230Z,620
2018-04-13T04:55:51.996Z,656
2018-04-13T04:56:52.271Z,700
2018-04-13T04:57:52.042Z,732
2018-04-13T04:58:51.603Z,768
2018-04-13T04:59:51.837Z,800
2018-04-13T05:00:52.355Z,820
2018-04-13T05:01:52.384Z,840
2018-04-13T05:02:52.145Z,852
2018-04-13T05:03:52.014Z,868
2018-04-13T05:04:52.199Z,884
2018-04-13T05:05:52.474Z,900
2018-04-13T05:06:52.495Z,924
2018-04-13T05:07:52.523Z,944
2018-04-13T05:08:52.563Z,964
2018-04-13T05:09:52.555Z,984
2018-04-13T05:10:52.580Z,1000
2018-04-13T05:11:52.415Z,1012
2018-04-13T05:12:52.630Z,1028
2018-04-13T05:13:52.689Z,1052
2018-04-13T05:14:52.664Z,1076
2018-04-13T05:15:52.423Z,1100
2018-04-13T05:16:52.700Z,1128
2018-04-13T05:17:52.716Z,1152
2018-04-13T05:18:52.753Z,1176
2018-04-13T05:19:52.770Z,1192
2018-04-13T05:20:52.792Z,1204
2018-04-13T05:21:52.561Z,1220
2018-04-13T05:22:52.833Z,1240
2018-04-13T05:23:52.863Z,1260
2018-04-13T05:24:52.645Z,1280
2018-04-13T05:25:52.903Z,1308
2018-04-13T05:26:52.665Z,1344
2018-04-13T05:27:52.689Z,1376
2018-04-13T05:28:53.011Z,1416
2018-04-13T05:29:52.477Z,1508
2018-04-13T05:30:53.004Z,1608
2018-04-13T05:31:52.259Z,1612
2018-04-13T05:32:52.793Z,1564
2018-04-13T05:33:52.834Z,1564
2018-04-13T05:34:53.087Z,1572
2018-04-13T05:35:53.109Z,1592
2018-04-13T05:36:53.131Z,1620
2018-04-13T05:37:53.153Z,1652
2018-04-13T05:38:52.920Z,1696
2018-04-13T05:39:52.943Z,1780
2018-04-13T05:40:53.213Z,1768
2018-04-13T05:41:52.983Z,1800
2018-04-13T05:42:53.256Z,1824
2018-04-13T05:43:53.333Z,1864
2018-04-13T05:44:53.040Z,1980
2018-04-13T05:45:53.313Z,2044
2018-04-13T05:46:53.085Z,1972
2018-04-13T05:47:53.354Z,1992
2018-04-13T05:48:53.386Z,2084
2018-04-13T05:49:53.140Z,2140
2018-04-13T05:50:53.458Z,2152
2018-04-13T05:51:53.183Z,2248
2018-04-13T05:52:53.466Z,2252
2018-04-13T05:53:53.531Z,2364
2018-04-13T05:54:53.505Z,2620
2018-04-13T05:55:53.525Z,3080
2018-04-13T05:56:53.289Z,3012
2018-04-13T05:57:52.805Z,2856
2018-04-13T05:58:53.636Z,3116
2018-04-13T05:59:53.613Z,3472
2018-04-13T06:00:53.370Z,3720
2018-04-13T06:01:53.140Z,3744
2018-04-13T06:02:53.665Z,3304
2018-04-13T06:03:53.693Z,3628
2018-04-13T06:04:53.709Z,3968
2018-04-13T06:05:53.732Z,4028
2018-04-13T06:06:53.761Z,4068
2018-04-13T06:07:53.539Z,4120
2018-04-13T06:08:53.788Z,4180
2018-04-13T06:09:53.564Z,4216
2018-04-13T06:10:53.331Z,4252
2018-04-13T06:11:53.863Z,4304
2018-04-13T06:12:53.858Z,4324
2018-04-13T06:13:53.684Z,4388
2018-04-13T06:14:53.892Z,4476
2018-04-13T06:15:53.926Z,4536
2018-04-13T06:16:53.435Z,4576
2018-04-13T06:17:53.710Z,4612
2018-04-13T06:18:54.125Z,4652
2018-04-13T06:19:53.515Z,4704
2018-04-13T06:20:54.046Z,4760
2018-04-13T06:21:53.810Z,4796
2018-04-13T06:22:54.100Z,4828
2018-04-13T06:23:54.112Z,4860
2018-04-13T06:24:54.138Z,4896
2018-04-13T06:25:54.154Z,4952
2018-04-13T06:26:53.922Z,5016
2018-04-13T06:27:53.956Z,5092
2018-04-13T06:28:54.265Z,5196
2018-04-13T06:29:54.261Z,5292
2018-04-13T06:30:54.268Z,5372
2018-04-13T06:31:54.278Z,5436
2018-04-13T06:32:54.295Z,5468
2018-04-13T06:33:54.333Z,5484
2018-04-13T06:34:54.111Z,5492
2018-04-13T06:35:54.402Z,5500
2018-04-13T06:36:57.537Z,5500
2018-04-13T06:37:54.139Z,5484
2018-04-13T06:38:54.166Z,5464
2018-04-13T06:39:54.438Z,5448
2018-04-13T06:40:54.462Z,5440
2018-04-13T06:41:54.484Z,5464
2018-04-13T06:42:54.253Z,5520
2018-04-13T06:43:54.320Z,5576
2018-04-13T06:44:54.309Z,5640
2018-04-13T06:45:54.585Z,5704
2018-04-13T06:46:54.355Z,5756
2018-04-13T06:47:54.627Z,5800
2018-04-13T06:48:54.775Z,5848
2018-04-13T06:49:54.671Z,5868
2018-04-13T06:50:54.692Z,5872
2018-04-13T06:51:54.710Z,5844
2018-04-13T06:52:54.492Z,5816
2018-04-13T06:53:54.760Z,5804
2018-04-13T06:54:54.526Z,5820
2018-04-13T06:55:54.547Z,5840
2018-04-13T06:56:54.877Z,5840
2018-04-13T06:57:54.602Z,5872
2018-04-13T06:58:54.916Z,5904
2018-04-13T06:59:54.120Z,5932
2018-04-13T07:00:54.403Z,5956
2018-04-13T07:01:54.983Z,5976
2018-04-13T07:02:55.015Z,5996
2018-04-13T07:03:54.976Z,6024
2018-04-13T07:04:54.492Z,6056
2018-04-13T07:05:54.775Z,6104
2018-04-13T07:06:55.045Z,6156
2018-04-13T07:07:54.615Z,6152
2018-04-13T07:08:54.581Z,6184
2018-04-13T07:09:54.863Z,6248
2018-04-13T07:10:55.133Z,6360
2018-04-13T07:11:55.157Z,6432
2018-04-13T07:12:55.176Z,6500
2018-04-13T07:13:55.252Z,6540
2018-04-13T07:14:54.971Z,6588
2018-04-13T07:15:54.739Z,6580
2018-04-13T07:16:55.280Z,6616
2018-04-13T07:17:55.294Z,6644
2018-04-13T07:18:55.315Z,6648
2018-04-13T07:19:55.338Z,6700
2018-04-13T07:20:55.131Z,6732
2018-04-13T07:21:55.379Z,6764
2018-04-13T07:22:55.149Z,6820
2018-04-13T07:23:56.478Z,6916
2018-04-13T07:24:55.223Z,7012
2018-04-13T07:25:55.217Z,7124
2018-04-13T07:26:55.495Z,7228
2018-04-13T07:27:55.255Z,7316
2018-04-13T07:28:55.589Z,7440
2018-04-13T07:29:55.567Z,7648
2018-04-13T07:30:55.337Z,7940
2018-04-13T07:31:56.059Z,8364
2018-04-13T07:32:55.639Z,8280
2018-04-13T07:33:55.572Z,8716
2018-04-13T07:34:55.434Z,9804
2018-04-13T07:35:55.719Z,10328
2018-04-13T07:36:55.471Z,7480
2018-04-13T07:37:55.495Z,7864
2018-04-13T07:38:55.496Z,8248
2018-04-13T07:39:55.787Z,8340
2018-04-13T07:40:55.809Z,8356
2018-04-13T07:41:55.845Z,8560
2018-04-13T07:42:55.882Z,8416
2018-04-13T07:43:55.625Z,8324
2018-04-13T07:44:56.391Z,8540
2018-04-13T07:45:55.668Z,8140
2018-04-13T07:46:55.970Z,6812
2018-04-13T07:47:55.972Z,6536
2018-04-13T07:48:55.538Z,6852
2018-04-13T07:49:56.700Z,7664
2018-04-13T07:50:56.403Z,8380
2018-04-13T07:51:55.551Z,6688
2018-04-13T07:52:55.581Z,6688
2018-04-13T07:53:55.600Z,6824
2018-04-13T07:54:55.621Z,6768
2018-04-13T07:55:55.899Z,6856
2018-04-13T07:56:55.671Z,7068
2018-04-13T07:57:55.698Z,7240
2018-04-13T07:58:56.006Z,8396
2018-04-13T07:59:56.149Z,7616
2018-04-13T08:00:56.394Z,8960
2018-04-13T08:01:56.346Z,8240
2018-04-13T08:02:55.810Z,7076
2018-04-13T08:03:56.816Z,6832
2018-04-13T08:04:56.110Z,6744
2018-04-13T08:05:56.385Z,6784
2018-04-13T08:06:55.903Z,7040
2018-04-13T08:07:55.939Z,7228
2018-04-13T08:08:56.212Z,7468
2018-04-13T08:09:56.224Z,7704
2018-04-13T08:10:56.509Z,7924
2018-04-13T08:11:56.022Z,8108
2018-04-13T08:12:57.013Z,8244
2018-04-13T08:13:57.374Z,8336
2018-04-13T08:14:56.605Z,8364
2018-04-13T08:15:56.798Z,8404
2018-04-13T08:16:56.649Z,8592
2018-04-13T08:17:56.763Z,8956
2018-04-13T08:18:56.496Z,8736
2018-04-13T08:19:56.723Z,8912
2018-04-13T08:20:56.487Z,9116
2018-04-13T08:21:56.752Z,9272
2018-04-13T08:22:56.301Z,9388
2018-04-13T08:23:56.549Z,9496
2018-04-13T08:24:56.572Z,9320
2018-04-13T08:25:56.597Z,9112
2018-04-13T08:26:56.875Z,8800
2018-04-13T08:27:56.647Z,8504
2018-04-13T08:28:56.482Z,8364
2018-04-13T08:29:56.479Z,10216
2018-04-13T08:30:56.765Z,11388
2018-04-13T08:31:56.745Z,10388
2018-04-13T08:32:56.828Z,7612
2018-04-13T08:33:56.846Z,7536
2018-04-13T08:34:56.861Z,7440
2018-04-13T08:35:56.857Z,7644
2018-04-13T08:36:56.909Z,7848
2018-04-13T08:37:57.239Z,7548
2018-04-13T08:38:56.680Z,7800
2018-04-13T08:39:57.265Z,8196
2018-04-13T08:40:56.983Z,8680
2018-04-13T08:41:57.010Z,9184
2018-04-13T08:42:56.953Z,9600
2018-04-13T08:43:57.290Z,9944
2018-04-13T08:44:57.055Z,10084
2018-04-13T08:45:57.080Z,10204
2018-04-13T08:46:56.871Z,10264
2018-04-13T08:47:57.154Z,10256
2018-04-13T08:48:57.816Z,10196
2018-04-13T08:49:57.508Z,10336
2018-04-13T08:50:57.512Z,10216
2018-04-13T08:51:57.540Z,10312
2018-04-13T08:52:57.600Z,10628
2018-04-13T08:53:57.398Z,10424
2018-04-13T08:54:57.351Z,10912
2018-04-13T08:55:57.377Z,9856
2018-04-13T08:56:57.564Z,9512
2018-04-13T08:57:57.144Z,9336
2018-04-13T08:58:57.674Z,9336
2018-04-13T08:59:57.443Z,9268
2018-04-13T09:00:57.574Z,9408
2018-04-13T09:01:57.745Z,9784
2018-04-13T09:02:57.512Z,9580
2018-04-13T09:03:57.591Z,9640
2018-04-13T09:04:57.810Z,9764
2018-04-13T09:05:57.835Z,9924
2018-04-13T09:06:57.372Z,10036
2018-04-13T09:07:57.124Z,10200
2018-04-13T09:08:57.661Z,10456
2018-04-13T09:09:57.683Z,10792
2018-04-13T09:10:57.452Z,11156
2018-04-13T09:11:57.480Z,12024
2018-04-13T09:12:57.506Z,12380
2018-04-13T09:13:57.905Z,12732
2018-04-13T09:14:58.060Z,13788
2018-04-13T09:15:57.833Z,14244
2018-04-13T09:16:58.117Z,14160
2018-04-13T09:17:57.408Z,16160
2018-04-13T09:18:58.217Z,19488
2018-04-13T09:19:57.680Z,16544
2018-04-13T09:20:58.095Z,19840
2018-04-13T09:21:58.235Z,14536
2018-04-13T09:22:58.013Z,15456
2018-04-13T09:23:57.780Z,14332
2018-04-13T09:24:58.308Z,14180
2018-04-13T09:25:57.840Z,15328
2018-04-13T09:26:58.095Z,13736
2018-04-13T09:27:58.478Z,14392
2018-04-13T09:28:58.153Z,15552
2018-04-13T09:29:58.426Z,15100
2018-04-13T09:30:58.476Z,15212
2018-04-13T09:31:58.242Z,15300
2018-04-13T09:32:58.256Z,15140
2018-04-13T09:33:58.551Z,16672
2018-04-13T09:34:58.059Z,14980
2018-04-13T09:35:58.448Z,15188
2018-04-13T09:36:58.366Z,15120
2018-04-13T09:37:58.397Z,14808
2018-04-13T09:38:58.727Z,15648
2018-04-13T09:39:58.702Z,14884
2018-04-13T09:40:58.721Z,14480
2018-04-13T09:41:58.245Z,13496
2018-04-13T09:42:58.277Z,12740
2018-04-13T09:43:58.918Z,12180
2018-04-13T09:44:58.824Z,11692
2018-04-13T09:45:58.343Z,11496
2018-04-13T09:46:58.623Z,11248
2018-04-13T09:47:58.396Z,11024
2018-04-13T09:48:58.673Z,11068
2018-04-13T09:49:58.986Z,10828
2018-04-13T09:50:58.986Z,10628
2018-04-13T09:51:58.759Z,10548
2018-04-13T09:52:58.793Z,10528
2018-04-13T09:53:59.114Z,10652
2018-04-13T09:54:59.118Z,10904
2018-04-13T09:55:58.612Z,11088
2018-04-13T09:56:59.143Z,11268
2018-04-13T09:57:58.663Z,11556
2018-04-13T09:58:59.192Z,12252
2018-04-13T09:59:59.214Z,12268
2018-04-13T10:00:59.010Z,12776
2018-04-13T10:01:59.062Z,13304
2018-04-13T10:02:58.795Z,13908
2018-04-13T10:03:59.076Z,15192
2018-04-13T10:04:59.356Z,15968
2018-04-13T10:05:59.372Z,19296
2018-04-13T10:06:59.149Z,17152
2018-04-13T10:07:59.456Z,22144
2018-04-13T10:08:59.245Z,28512
2018-04-13T10:09:59.220Z,23136
2018-04-13T10:10:59.246Z,18080
2018-04-13T10:11:59.522Z,20448
2018-04-13T10:12:59.045Z,18720
2018-04-13T10:13:59.586Z,22080
2018-04-13T10:14:59.101Z,19808
2018-04-13T10:15:59.399Z,23232
2018-04-13T10:16:59.663Z,19360
2018-04-13T10:17:59.683Z,17728
2018-04-13T10:18:59.454Z,19936
2018-04-13T10:19:59.488Z,28384
2018-04-13T10:20:59.521Z,27840
2018-04-13T10:21:59.538Z,26592
2018-04-13T10:22:59.817Z,25792
2018-04-13T10:23:59.641Z,28256
2018-04-13T10:24:59.879Z,30592
2018-04-13T10:25:59.392Z,29792
2018-04-13T10:26:59.773Z,30656
2018-04-13T10:27:59.708Z,31488
2018-04-13T10:28:59.731Z,31040
2018-04-13T10:29:59.765Z,30784
2018-04-13T10:30:59.787Z,27008
2018-04-13T10:31:59.585Z,25632
2018-04-13T10:33:00.079Z,28352
2018-04-13T10:34:00.104Z,24608
2018-04-13T10:35:00.134Z,31680
2018-04-13T10:36:00.183Z,34048
2018-04-13T10:36:59.721Z,13796
2018-04-13T10:38:00.243Z,34784
2018-04-13T10:38:59.562Z,36608
2018-04-13T10:40:00.309Z,38752
2018-04-13T10:41:00.336Z,39904
2018-04-13T10:42:00.360Z,32896
2018-04-13T10:43:00.141Z,37184
2018-04-13T10:44:00.425Z,18400
2018-04-13T10:44:59.943Z,23040
2018-04-13T10:46:00.476Z,33568
2018-04-13T10:47:00.252Z,34048
2018-04-13T10:48:00.534Z,23008
2018-04-13T10:49:00.564Z,30496
2018-04-13T10:50:00.595Z,20000
2018-04-13T10:51:00.639Z,29024
2018-04-13T10:52:00.673Z,13828
2018-04-13T10:53:00.690Z,11564
2018-04-13T10:54:00.519Z,11128
2018-04-13T10:55:00.753Z,11204
2018-04-13T10:56:00.511Z,11360
2018-04-13T10:57:00.061Z,11892
2018-04-13T10:58:00.588Z,34816
2018-04-13T10:59:00.919Z,36704
2018-04-13T11:00:00.910Z,38592
2018-04-13T11:01:00.934Z,37984
2018-04-13T11:02:00.708Z,36928
2018-04-13T11:03:00.989Z,37824
2018-04-13T11:04:01.015Z,16608
2018-04-13T11:05:01.051Z,13208
2018-04-13T11:06:01.083Z,12548
2018-04-13T11:07:00.856Z,11352
2018-04-13T11:08:00.891Z,11340
2018-04-13T11:09:01.181Z,11988
2018-04-13T11:10:00.961Z,13304
2018-04-13T11:11:01.234Z,22464
2018-04-13T11:12:01.011Z,19264
2018-04-13T11:13:01.292Z,14064
2018-04-13T11:14:00.606Z,10692
2018-04-13T11:15:01.094Z,11204
2018-04-13T11:16:01.375Z,12404
2018-04-13T11:17:01.193Z,13600
2018-04-13T11:18:01.442Z,49088
2018-04-13T11:19:00.954Z,14332
2018-04-13T11:20:01.231Z,14728
2018-04-13T11:21:01.009Z,17920
2018-04-13T11:22:01.296Z,12104
2018-04-13T11:23:01.574Z,10044
2018-04-13T11:24:01.607Z,8988
2018-04-13T11:25:01.442Z,8604
2018-04-13T11:26:01.656Z,8664
2018-04-13T11:27:01.689Z,8812
2018-04-13T11:28:01.729Z,8756
2018-04-13T11:29:01.800Z,8588
2018-04-13T11:30:01.771Z,8308
2018-04-13T11:31:01.548Z,8236
2018-04-13T11:32:01.576Z,8052
2018-04-13T11:33:01.603Z,7280
2018-04-13T11:34:01.641Z,6972
2018-04-13T11:35:01.914Z,6792
2018-04-13T11:36:01.690Z,6964
2018-04-13T11:37:01.724Z,7144
2018-04-13T11:38:01.739Z,7400
2018-04-13T11:39:01.572Z,8000
2018-04-13T11:40:01.551Z,9064
2018-04-13T11:41:01.822Z,10440
2018-04-13T11:42:02.103Z,11720
2018-04-13T11:43:01.877Z,13368
2018-04-13T11:44:02.205Z,15224
2018-04-13T11:45:01.931Z,63520
2018-04-13T11:46:02.217Z,65376
2018-04-13T11:47:02.231Z,59904
2018-04-13T11:48:02.272Z,49312
2018-04-13T11:49:02.290Z,19424
2018-04-13T11:50:02.341Z,36128
2018-04-13T11:51:02.354Z,54784
2018-04-13T11:52:02.374Z,16060
2018-04-13T11:53:02.421Z,9956
2018-04-13T11:54:01.971Z,9696
2018-04-13T11:55:02.461Z,9564
2018-04-13T11:56:02.230Z,8880
2018-04-13T11:57:02.514Z,8608
2018-04-13T11:58:02.282Z,8488
2018-04-13T11:59:02.071Z,7740
2018-04-13T12:00:02.339Z,7452
2018-04-13T12:01:02.376Z,7280
2018-04-13T12:02:02.649Z,6964
2018-04-13T12:03:02.417Z,6612
2018-04-13T12:04:02.726Z,6668
2018-04-13T12:05:02.741Z,6732
2018-04-13T12:06:02.765Z,6528
2018-04-13T12:07:02.290Z,6644
2018-04-13T12:08:02.575Z,7240
2018-04-13T12:09:02.896Z,8112
2018-04-13T12:10:02.621Z,9112
2018-04-13T12:11:02.382Z,9872
2018-04-13T12:12:02.915Z,9568
2018-04-13T12:13:02.699Z,9520
2018-04-13T12:14:02.717Z,9380
2018-04-13T12:15:02.516Z,9188
2018-04-13T12:16:02.767Z,8976
2018-04-13T12:17:03.065Z,8824
2018-04-13T12:18:03.081Z,8820
2018-04-13T12:19:03.101Z,8800
2018-04-13T12:20:02.362Z,8784
2018-04-13T12:21:03.170Z,8756
2018-04-13T12:22:02.938Z,8732
2018-04-13T12:23:02.955Z,8692
2018-04-13T12:24:02.780Z,8664
2018-04-13T12:25:03.262Z,8608
2018-04-13T12:26:03.323Z,8536
2018-04-13T12:27:03.315Z,8552
2018-04-13T12:28:03.344Z,8668
2018-04-13T12:29:03.365Z,8816
2018-04-13T12:30:03.152Z,8908
2018-04-13T12:31:03.144Z,9004
2018-04-13T12:32:03.486Z,9232
2018-04-13T12:33:03.207Z,9432
2018-04-13T12:34:03.236Z,9580
2018-04-13T12:35:03.515Z,9820
2018-04-13T12:36:03.289Z,10112
2018-04-13T12:37:03.325Z,10412
2018-04-13T12:38:03.082Z,10716
2018-04-13T12:39:03.416Z,11240
2018-04-13T12:40:03.635Z,11872
2018-04-13T12:41:03.411Z,12268
2018-04-13T12:42:03.687Z,12548
2018-04-13T12:43:03.714Z,12900
2018-04-13T12:44:03.230Z,13372
2018-04-13T12:45:03.777Z,14260
2018-04-13T12:46:03.539Z,15508
2018-04-13T12:47:03.569Z,16448
2018-04-13T12:48:03.839Z,15252
2018-04-13T12:49:03.715Z,17696
2018-04-13T12:50:04.049Z,17152
2018-04-13T12:51:03.926Z,19424
2018-04-13T12:52:03.935Z,20096
2018-04-13T12:53:03.816Z,20320
2018-04-13T12:54:04.328Z,20800
2018-04-13T12:55:04.936Z,20672
2018-04-13T12:56:03.952Z,21536
2018-04-13T12:57:04.002Z,24032
2018-04-13T12:58:03.840Z,28000
2018-04-13T12:59:04.166Z,33632
2018-04-13T13:00:04.152Z,26528
2018-04-13T13:01:03.412Z,19168
2018-04-13T13:02:03.689Z,17600
2018-04-13T13:03:03.974Z,24256
2018-04-13T13:04:04.261Z,21184
2018-04-13T13:05:04.023Z,19872
2018-04-13T13:06:04.055Z,34528
2018-04-13T13:07:04.334Z,37696
2018-04-13T13:08:04.366Z,22112
2018-04-13T13:09:04.234Z,26464
2018-04-13T13:10:04.154Z,41376
2018-04-13T13:11:03.930Z,43008
2018-04-13T13:12:03.967Z,48288
2018-04-13T13:13:04.506Z,54304
2018-04-13T13:14:04.274Z,57760
2018-04-13T13:15:04.293Z,59616
2018-04-13T13:16:04.626Z,61600
2018-04-13T13:17:04.612Z,62944
2018-04-13T13:18:04.373Z,63360
2018-04-13T13:19:04.154Z,66752
2018-04-13T13:20:04.437Z,74496
2018-04-13T13:21:04.470Z,78624
2018-04-13T13:22:03.982Z,80480
2018-04-13T13:23:04.524Z,82432
2018-04-13T13:24:04.867Z,82208
2018-04-13T13:25:04.322Z,86336
2018-04-13T13:26:04.864Z,89120
2018-04-13T13:27:04.887Z,89024
2018-04-13T13:28:04.922Z,88448
2018-04-13T13:29:05.018Z,83904
2018-04-13T13:30:04.748Z,84640
2018-04-13T13:31:05.017Z,91296
2018-04-13T13:32:04.791Z,92064
2018-04-13T13:33:04.570Z,94688
2018-04-13T13:34:04.865Z,94752
2018-04-13T13:35:05.139Z,92416
2018-04-13T13:36:04.917Z,85888
2018-04-13T13:37:04.961Z,86464
2018-04-13T13:38:04.982Z,91872
2018-04-13T13:39:05.321Z,94272